sensor_id;sensor_type;location;lat;lon;timestamp;P1;durP1;ratioP1;P2;durP2;ratioP2
6089;SDS011;3073;42.660;23.316;2023-03-03T00:00:04;4.77;;;3.77;;
6089;SDS011;3073;42.660;23.316;2023-03-03T00:02:32;5.17;;;3.70;;
6089;SDS011;3073;42.660;23.316;2023-03-03T00:04:59;3.50;;;3.00;;
6089;SDS011;3073;42.660;23.316;2023-03-03T00:07:27;4.73;;;3.70;;
6089;SDS011;3073;42.660;23.316;2023-03-03T00:09:54;4.10;;;3.70;;
6089;SDS011;3073;42.660;23.316;2023-03-03T00:12:22;5.90;;;3.83;;
6089;SDS011;3073;42.660;23.316;2023-03-03T00:14:51;4.97;;;3.90;;
6089;SDS011;3073;42.660;23.316;2023-03-03T00:17:20;6.90;;;4.57;;
6089;SDS011;3073;42.660;23.316;2023-03-03T00:19:48;4.03;;;3.63;;
6089;SDS011;3073;42.660;23.316;2023-03-03T00:22:21;6.40;;;3.93;;
6089;SDS011;3073;42.660;23.316;2023-03-03T00:24:57;7.40;;;4.47;;
6089;SDS011;3073;42.660;23.316;2023-03-03T00:27:27;5.43;;;4.30;;
6089;SDS011;3073;42.660;23.316;2023-03-03T00:29:56;4.23;;;3.57;;
6089;SDS011;3073;42.660;23.316;2023-03-03T00:32:24;4.73;;;3.93;;
6089;SDS011;3073;42.660;23.316;2023-03-03T00:34:53;5.07;;;4.40;;
6089;SDS011;3073;42.660;23.316;2023-03-03T00:37:23;5.53;;;4.30;;
6089;SDS011;3073;42.660;23.316;2023-03-03T00:39:54;6.63;;;4.50;;
6089;SDS011;3073;42.660;23.316;2023-03-03T00:42:28;7.27;;;4.50;;
6089;SDS011;3073;42.660;23.316;2023-03-03T00:44:55;8.77;;;5.50;;
6089;SDS011;3073;42.660;23.316;2023-03-03T00:47:24;5.60;;;4.60;;
6089;SDS011;3073;42.660;23.316;2023-03-03T00:49:58;13.93;;;5.33;;
6089;SDS011;3073;42.660;23.316;2023-03-03T00:52:52;7.10;;;5.37;;
6089;SDS011;3073;42.660;23.316;2023-03-03T00:55:27;9.20;;;5.30;;
6089;SDS011;3073;42.660;23.316;2023-03-03T00:57:54;6.87;;;5.23;;
6089;SDS011;3073;42.660;23.316;2023-03-03T01:00:21;5.77;;;5.10;;
6089;SDS011;3073;42.660;23.316;2023-03-03T01:02:48;7.53;;;5.13;;
6089;SDS011;3073;42.660;23.316;2023-03-03T01:05:17;8.60;;;6.03;;
6089;SDS011;3073;42.660;23.316;2023-03-03T01:07:44;7.30;;;5.37;;
6089;SDS011;3073;42.660;23.316;2023-03-03T01:10:11;7.57;;;4.93;;
6089;SDS011;3073;42.660;23.316;2023-03-03T01:12:42;7.67;;;5.60;;
6089;SDS011;3073;42.660;23.316;2023-03-03T01:15:09;7.87;;;5.60;;
6089;SDS011;3073;42.660;23.316;2023-03-03T01:17:37;6.93;;;5.40;;
6089;SDS011;3073;42.660;23.316;2023-03-03T01:20:06;7.40;;;5.33;;
6089;SDS011;3073;42.660;23.316;2023-03-03T01:22:34;6.60;;;5.13;;
6089;SDS011;3073;42.660;23.316;2023-03-03T01:25:01;6.60;;;5.40;;
6089;SDS011;3073;42.660;23.316;2023-03-03T01:27:29;6.63;;;4.97;;
6089;SDS011;3073;42.660;23.316;2023-03-03T01:29:58;6.50;;;5.10;;
6089;SDS011;3073;42.660;23.316;2023-03-03T01:32:25;6.30;;;4.57;;
6089;SDS011;3073;42.660;23.316;2023-03-03T01:34:52;7.30;;;5.20;;
6089;SDS011;3073;42.660;23.316;2023-03-03T01:37:19;8.77;;;5.53;;
6089;SDS011;3073;42.660;23.316;2023-03-03T01:39:47;7.43;;;4.77;;
6089;SDS011;3073;42.660;23.316;2023-03-03T01:42:15;7.77;;;4.87;;
6089;SDS011;3073;42.660;23.316;2023-03-03T01:44:42;7.33;;;5.07;;
6089;SDS011;3073;42.660;23.316;2023-03-03T01:47:11;5.10;;;4.57;;
6089;SDS011;3073;42.660;23.316;2023-03-03T01:49:41;6.43;;;4.97;;
6089;SDS011;3073;42.660;23.316;2023-03-03T01:52:14;6.87;;;5.00;;
6089;SDS011;3073;42.660;23.316;2023-03-03T01:54:49;6.70;;;5.40;;
6089;SDS011;3073;42.660;23.316;2023-03-03T01:57:21;7.90;;;5.50;;
6089;SDS011;3073;42.660;23.316;2023-03-03T01:59:51;5.90;;;5.10;;
6089;SDS011;3073;42.660;23.316;2023-03-03T02:02:22;7.50;;;4.67;;
6089;SDS011;3073;42.660;23.316;2023-03-03T02:04:50;6.70;;;5.20;;
6089;SDS011;3073;42.660;23.316;2023-03-03T02:07:17;5.00;;;4.30;;
6089;SDS011;3073;42.660;23.316;2023-03-03T02:09:49;7.43;;;5.10;;
6089;SDS011;3073;42.660;23.316;2023-03-03T02:12:21;8.90;;;5.33;;
6089;SDS011;3073;42.660;23.316;2023-03-03T02:14:53;6.97;;;5.20;;
6089;SDS011;3073;42.660;23.316;2023-03-03T02:17:22;7.50;;;4.83;;
6089;SDS011;3073;42.660;23.316;2023-03-03T02:19:51;9.33;;;5.60;;
6089;SDS011;3073;42.660;23.316;2023-03-03T02:22:27;7.50;;;4.47;;
6089;SDS011;3073;42.660;23.316;2023-03-03T02:25:06;7.00;;;5.00;;
6089;SDS011;3073;42.660;23.316;2023-03-03T02:27:37;7.90;;;5.20;;
6089;SDS011;3073;42.660;23.316;2023-03-03T02:30:10;7.03;;;5.33;;
6089;SDS011;3073;42.660;23.316;2023-03-03T02:32:41;7.30;;;5.03;;
6089;SDS011;3073;42.660;23.316;2023-03-03T02:35:27;6.20;;;4.80;;
6089;SDS011;3073;42.660;23.316;2023-03-03T02:37:56;7.97;;;4.57;;
6089;SDS011;3073;42.660;23.316;2023-03-03T02:40:30;8.40;;;5.53;;
6089;SDS011;3073;42.660;23.316;2023-03-03T02:43:03;6.57;;;4.87;;
6089;SDS011;3073;42.660;23.316;2023-03-03T02:45:32;7.13;;;4.90;;
6089;SDS011;3073;42.660;23.316;2023-03-03T02:47:59;6.63;;;4.97;;
6089;SDS011;3073;42.660;23.316;2023-03-03T02:50:25;7.90;;;5.50;;
6089;SDS011;3073;42.660;23.316;2023-03-03T02:52:52;7.30;;;5.60;;
6089;SDS011;3073;42.660;23.316;2023-03-03T02:55:19;6.73;;;5.10;;
6089;SDS011;3073;42.660;23.316;2023-03-03T02:57:46;7.37;;;5.27;;
6089;SDS011;3073;42.660;23.316;2023-03-03T03:02:42;8.13;;;6.03;;
6089;SDS011;3073;42.660;23.316;2023-03-03T03:05:09;7.97;;;6.13;;
6089;SDS011;3073;42.660;23.316;2023-03-03T03:07:36;7.10;;;5.40;;
6089;SDS011;3073;42.660;23.316;2023-03-03T03:10:03;9.07;;;6.40;;
6089;SDS011;3073;42.660;23.316;2023-03-03T03:12:30;9.87;;;6.53;;
6089;SDS011;3073;42.660;23.316;2023-03-03T03:14:57;6.60;;;5.63;;
6089;SDS011;3073;42.660;23.316;2023-03-03T03:17:26;10.10;;;7.20;;
6089;SDS011;3073;42.660;23.316;2023-03-03T03:19:53;8.20;;;6.70;;
6089;SDS011;3073;42.660;23.316;2023-03-03T03:22:20;11.87;;;8.00;;
6089;SDS011;3073;42.660;23.316;2023-03-03T03:24:46;11.60;;;7.70;;
6089;SDS011;3073;42.660;23.316;2023-03-03T03:27:13;11.47;;;6.90;;
6089;SDS011;3073;42.660;23.316;2023-03-03T03:29:40;10.00;;;6.83;;
6089;SDS011;3073;42.660;23.316;2023-03-03T03:32:07;10.40;;;7.63;;
6089;SDS011;3073;42.660;23.316;2023-03-03T03:34:35;12.60;;;8.33;;
6089;SDS011;3073;42.660;23.316;2023-03-03T03:37:02;11.50;;;7.70;;
6089;SDS011;3073;42.660;23.316;2023-03-03T03:39:29;12.40;;;9.10;;
6089;SDS011;3073;42.660;23.316;2023-03-03T03:41:56;12.13;;;8.40;;
6089;SDS011;3073;42.660;23.316;2023-03-03T03:44:22;12.47;;;8.57;;
6089;SDS011;3073;42.660;23.316;2023-03-03T03:46:50;13.73;;;9.20;;
6089;SDS011;3073;42.660;23.316;2023-03-03T03:49:16;13.83;;;8.70;;
6089;SDS011;3073;42.660;23.316;2023-03-03T03:51:45;16.80;;;9.50;;
6089;SDS011;3073;42.660;23.316;2023-03-03T03:54:11;11.40;;;8.30;;
6089;SDS011;3073;42.660;23.316;2023-03-03T03:56:38;13.87;;;8.80;;
6089;SDS011;3073;42.660;23.316;2023-03-03T03:59:05;14.77;;;10.10;;
6089;SDS011;3073;42.660;23.316;2023-03-03T04:01:32;13.77;;;9.20;;
6089;SDS011;3073;42.660;23.316;2023-03-03T04:03:59;13.30;;;8.77;;
6089;SDS011;3073;42.660;23.316;2023-03-03T04:06:27;12.23;;;9.10;;
6089;SDS011;3073;42.660;23.316;2023-03-03T04:08:55;16.40;;;10.87;;
6089;SDS011;3073;42.660;23.316;2023-03-03T04:11:22;13.27;;;9.40;;
6089;SDS011;3073;42.660;23.316;2023-03-03T04:13:49;16.50;;;10.43;;
6089;SDS011;3073;42.660;23.316;2023-03-03T04:16:16;14.10;;;9.37;;
6089;SDS011;3073;42.660;23.316;2023-03-03T04:18:43;15.23;;;9.80;;
6089;SDS011;3073;42.660;23.316;2023-03-03T04:21:11;15.43;;;9.60;;
6089;SDS011;3073;42.660;23.316;2023-03-03T04:23:38;15.30;;;9.90;;
6089;SDS011;3073;42.660;23.316;2023-03-03T04:26:06;16.60;;;10.77;;
6089;SDS011;3073;42.660;23.316;2023-03-03T04:28:34;18.57;;;11.43;;
6089;SDS011;3073;42.660;23.316;2023-03-03T04:31:01;20.40;;;11.30;;
6089;SDS011;3073;42.660;23.316;2023-03-03T04:33:28;25.00;;;12.67;;
6089;SDS011;3073;42.660;23.316;2023-03-03T04:35:55;21.37;;;13.30;;
6089;SDS011;3073;42.660;23.316;2023-03-03T04:38:22;26.10;;;13.50;;
6089;SDS011;3073;42.660;23.316;2023-03-03T04:40:48;28.90;;;14.60;;
6089;SDS011;3073;42.660;23.316;2023-03-03T04:43:17;28.63;;;14.00;;
6089;SDS011;3073;42.660;23.316;2023-03-03T04:45:44;25.87;;;13.40;;
6089;SDS011;3073;42.660;23.316;2023-03-03T04:48:10;22.60;;;12.40;;
6089;SDS011;3073;42.660;23.316;2023-03-03T04:50:37;15.10;;;10.03;;
6089;SDS011;3073;42.660;23.316;2023-03-03T04:53:04;17.90;;;11.33;;
6089;SDS011;3073;42.660;23.316;2023-03-03T04:55:31;15.90;;;10.80;;
6089;SDS011;3073;42.660;23.316;2023-03-03T04:57:59;17.60;;;11.67;;
6089;SDS011;3073;42.660;23.316;2023-03-03T05:00:27;18.53;;;10.83;;
6089;SDS011;3073;42.660;23.316;2023-03-03T05:02:54;21.13;;;12.77;;
6089;SDS011;3073;42.660;23.316;2023-03-03T05:05:21;21.77;;;11.10;;
6089;SDS011;3073;42.660;23.316;2023-03-03T05:07:48;19.63;;;12.13;;
6089;SDS011;3073;42.660;23.316;2023-03-03T05:10:15;19.60;;;11.67;;
6089;SDS011;3073;42.660;23.316;2023-03-03T05:12:44;19.57;;;12.70;;
6089;SDS011;3073;42.660;23.316;2023-03-03T05:15:10;21.93;;;13.83;;
6089;SDS011;3073;42.660;23.316;2023-03-03T05:17:39;20.73;;;13.60;;
6089;SDS011;3073;42.660;23.316;2023-03-03T05:20:06;20.23;;;13.17;;
6089;SDS011;3073;42.660;23.316;2023-03-03T05:22:34;25.30;;;13.33;;
6089;SDS011;3073;42.660;23.316;2023-03-03T05:25:01;20.80;;;11.77;;
6089;SDS011;3073;42.660;23.316;2023-03-03T05:27:28;23.77;;;13.87;;
6089;SDS011;3073;42.660;23.316;2023-03-03T05:29:55;22.23;;;13.60;;
6089;SDS011;3073;42.660;23.316;2023-03-03T05:32:22;21.23;;;13.17;;
6089;SDS011;3073;42.660;23.316;2023-03-03T05:34:50;26.53;;;13.93;;
6089;SDS011;3073;42.660;23.316;2023-03-03T05:37:17;28.43;;;14.20;;
6089;SDS011;3073;42.660;23.316;2023-03-03T05:39:44;23.60;;;14.30;;
6089;SDS011;3073;42.660;23.316;2023-03-03T05:42:11;21.00;;;13.47;;
6089;SDS011;3073;42.660;23.316;2023-03-03T05:44:40;24.83;;;16.00;;
6089;SDS011;3073;42.660;23.316;2023-03-03T05:47:08;22.53;;;13.77;;
6089;SDS011;3073;42.660;23.316;2023-03-03T05:49:35;30.70;;;14.07;;
6089;SDS011;3073;42.660;23.316;2023-03-03T05:52:05;22.53;;;13.30;;
6089;SDS011;3073;42.660;23.316;2023-03-03T05:54:33;19.77;;;13.10;;
6089;SDS011;3073;42.660;23.316;2023-03-03T05:57:00;20.27;;;12.83;;
6089;SDS011;3073;42.660;23.316;2023-03-03T05:59:27;23.07;;;14.40;;
6089;SDS011;3073;42.660;23.316;2023-03-03T06:01:54;23.70;;;13.30;;
6089;SDS011;3073;42.660;23.316;2023-03-03T06:04:21;21.97;;;12.53;;
6089;SDS011;3073;42.660;23.316;2023-03-03T06:06:48;23.93;;;13.70;;
6089;SDS011;3073;42.660;23.316;2023-03-03T06:09:16;23.93;;;13.30;;
6089;SDS011;3073;42.660;23.316;2023-03-03T06:11:44;26.07;;;15.13;;
6089;SDS011;3073;42.660;23.316;2023-03-03T06:16:59;20.70;;;13.37;;
6089;SDS011;3073;42.660;23.316;2023-03-03T06:19:28;24.50;;;13.93;;
6089;SDS011;3073;42.660;23.316;2023-03-03T06:22:08;27.63;;;14.90;;
6089;SDS011;3073;42.660;23.316;2023-03-03T06:24:40;22.03;;;13.00;;
6089;SDS011;3073;42.660;23.316;2023-03-03T06:27:07;25.00;;;14.00;;
6089;SDS011;3073;42.660;23.316;2023-03-03T06:29:35;25.83;;;13.90;;
6089;SDS011;3073;42.660;23.316;2023-03-03T06:32:07;25.07;;;14.10;;
6089;SDS011;3073;42.660;23.316;2023-03-03T06:34:34;23.40;;;13.37;;
6089;SDS011;3073;42.660;23.316;2023-03-03T06:37:03;25.60;;;15.20;;
6089;SDS011;3073;42.660;23.316;2023-03-03T06:39:30;28.20;;;14.57;;
6089;SDS011;3073;42.660;23.316;2023-03-03T06:42:00;29.63;;;15.90;;
6089;SDS011;3073;42.660;23.316;2023-03-03T06:44:30;26.43;;;14.37;;
6089;SDS011;3073;42.660;23.316;2023-03-03T06:46:57;25.13;;;15.50;;
6089;SDS011;3073;42.660;23.316;2023-03-03T06:49:24;24.70;;;14.80;;
6089;SDS011;3073;42.660;23.316;2023-03-03T06:51:51;24.20;;;14.30;;
6089;SDS011;3073;42.660;23.316;2023-03-03T06:54:18;22.50;;;13.80;;
6089;SDS011;3073;42.660;23.316;2023-03-03T06:56:47;24.47;;;14.70;;
6089;SDS011;3073;42.660;23.316;2023-03-03T06:59:20;22.73;;;13.23;;
6089;SDS011;3073;42.660;23.316;2023-03-03T07:01:49;20.70;;;12.90;;
6089;SDS011;3073;42.660;23.316;2023-03-03T07:04:21;22.33;;;13.43;;
6089;SDS011;3073;42.660;23.316;2023-03-03T07:06:53;23.37;;;14.10;;
6089;SDS011;3073;42.660;23.316;2023-03-03T07:09:21;23.77;;;13.50;;
6089;SDS011;3073;42.660;23.316;2023-03-03T07:11:49;21.63;;;13.90;;
6089;SDS011;3073;42.660;23.316;2023-03-03T07:14:17;25.40;;;13.30;;
6089;SDS011;3073;42.660;23.316;2023-03-03T07:16:46;20.50;;;13.00;;
6089;SDS011;3073;42.660;23.316;2023-03-03T07:19:22;23.60;;;13.83;;
6089;SDS011;3073;42.660;23.316;2023-03-03T07:21:57;22.77;;;13.90;;
6089;SDS011;3073;42.660;23.316;2023-03-03T07:24:28;20.53;;;12.87;;
6089;SDS011;3073;42.660;23.316;2023-03-03T07:26:58;18.80;;;11.63;;
6089;SDS011;3073;42.660;23.316;2023-03-03T07:29:36;17.03;;;10.70;;
6089;SDS011;3073;42.660;23.316;2023-03-03T07:32:10;17.10;;;10.00;;
6089;SDS011;3073;42.660;23.316;2023-03-03T07:34:49;16.73;;;9.80;;
6089;SDS011;3073;42.660;23.316;2023-03-03T07:37:20;18.17;;;11.20;;
6089;SDS011;3073;42.660;23.316;2023-03-03T07:39:54;17.93;;;11.67;;
6089;SDS011;3073;42.660;23.316;2023-03-03T07:42:22;18.03;;;10.93;;
6089;SDS011;3073;42.660;23.316;2023-03-03T07:44:52;14.80;;;10.10;;
6089;SDS011;3073;42.660;23.316;2023-03-03T07:47:25;15.33;;;11.30;;
6089;SDS011;3073;42.660;23.316;2023-03-03T07:49:54;16.90;;;10.57;;
6089;SDS011;3073;42.660;23.316;2023-03-03T07:52:36;22.03;;;12.40;;
6089;SDS011;3073;42.660;23.316;2023-03-03T07:55:18;18.90;;;11.00;;
6089;SDS011;3073;42.660;23.316;2023-03-03T07:57:50;19.07;;;11.83;;
6089;SDS011;3073;42.660;23.316;2023-03-03T08:03:26;20.60;;;12.30;;
6089;SDS011;3073;42.660;23.316;2023-03-03T08:05:53;18.20;;;12.00;;
6089;SDS011;3073;42.660;23.316;2023-03-03T08:08:29;22.00;;;12.20;;
6089;SDS011;3073;42.660;23.316;2023-03-03T08:11:01;20.73;;;12.20;;
6089;SDS011;3073;42.660;23.316;2023-03-03T08:13:34;19.10;;;12.20;;
6089;SDS011;3073;42.660;23.316;2023-03-03T08:16:17;20.80;;;11.70;;
6089;SDS011;3073;42.660;23.316;2023-03-03T08:18:55;19.40;;;12.77;;
6089;SDS011;3073;42.660;23.316;2023-03-03T08:21:36;20.23;;;13.70;;
6089;SDS011;3073;42.660;23.316;2023-03-03T08:24:07;19.73;;;11.33;;
6089;SDS011;3073;42.660;23.316;2023-03-03T08:26:35;22.40;;;12.83;;
6089;SDS011;3073;42.660;23.316;2023-03-03T08:29:02;22.87;;;12.60;;
6089;SDS011;3073;42.660;23.316;2023-03-03T08:31:34;20.60;;;11.30;;
6089;SDS011;3073;42.660;23.316;2023-03-03T08:34:05;15.87;;;10.07;;
6089;SDS011;3073;42.660;23.316;2023-03-03T08:36:33;18.90;;;12.17;;
6089;SDS011;3073;42.660;23.316;2023-03-03T08:39:00;21.23;;;13.20;;
6089;SDS011;3073;42.660;23.316;2023-03-03T08:41:28;23.17;;;13.17;;
6089;SDS011;3073;42.660;23.316;2023-03-03T08:43:55;22.90;;;13.87;;
6089;SDS011;3073;42.660;23.316;2023-03-03T08:46:22;24.23;;;14.87;;
6089;SDS011;3073;42.660;23.316;2023-03-03T08:48:49;26.23;;;14.10;;
6089;SDS011;3073;42.660;23.316;2023-03-03T08:51:18;25.03;;;14.40;;
6089;SDS011;3073;42.660;23.316;2023-03-03T08:53:45;28.10;;;15.60;;
6089;SDS011;3073;42.660;23.316;2023-03-03T08:56:12;27.30;;;16.17;;
6089;SDS011;3073;42.660;23.316;2023-03-03T08:58:39;32.40;;;17.93;;
6089;SDS011;3073;42.660;23.316;2023-03-03T09:01:12;28.20;;;17.40;;
6089;SDS011;3073;42.660;23.316;2023-03-03T09:03:40;23.70;;;15.50;;
6089;SDS011;3073;42.660;23.316;2023-03-03T09:06:07;29.53;;;16.30;;
6089;SDS011;3073;42.660;23.316;2023-03-03T09:08:35;28.50;;;16.80;;
6089;SDS011;3073;42.660;23.316;2023-03-03T09:11:08;38.00;;;17.30;;
6089;SDS011;3073;42.660;23.316;2023-03-03T09:13:35;32.97;;;16.80;;
6089;SDS011;3073;42.660;23.316;2023-03-03T09:16:06;39.30;;;16.50;;
6089;SDS011;3073;42.660;23.316;2023-03-03T09:18:37;27.67;;;16.63;;
6089;SDS011;3073;42.660;23.316;2023-03-03T09:21:15;30.20;;;17.27;;
6089;SDS011;3073;42.660;23.316;2023-03-03T09:23:49;33.90;;;17.60;;
6089;SDS011;3073;42.660;23.316;2023-03-03T09:26:25;32.70;;;17.17;;
6089;SDS011;3073;42.660;23.316;2023-03-03T09:28:55;29.43;;;17.33;;
6089;SDS011;3073;42.660;23.316;2023-03-03T09:31:26;29.30;;;16.17;;
6089;SDS011;3073;42.660;23.316;2023-03-03T09:34:09;23.63;;;14.60;;
6089;SDS011;3073;42.660;23.316;2023-03-03T09:36:42;31.33;;;14.80;;
6089;SDS011;3073;42.660;23.316;2023-03-03T09:39:14;27.17;;;16.17;;
6089;SDS011;3073;42.660;23.316;2023-03-03T09:41:54;25.00;;;13.90;;
6089;SDS011;3073;42.660;23.316;2023-03-03T09:45:10;23.63;;;14.27;;
6089;SDS011;3073;42.660;23.316;2023-03-03T09:47:51;25.73;;;14.07;;
6089;SDS011;3073;42.660;23.316;2023-03-03T09:50:29;21.87;;;14.27;;
6089;SDS011;3073;42.660;23.316;2023-03-03T09:53:09;23.43;;;13.60;;
6089;SDS011;3073;42.660;23.316;2023-03-03T09:55:58;21.63;;;13.20;;
6089;SDS011;3073;42.660;23.316;2023-03-03T09:58:52;19.80;;;12.07;;
6089;SDS011;3073;42.660;23.316;2023-03-03T10:01:49;20.70;;;12.83;;
6089;SDS011;3073;42.660;23.316;2023-03-03T10:04:38;18.27;;;11.47;;
6089;SDS011;3073;42.660;23.316;2023-03-03T10:07:28;23.47;;;13.67;;
6089;SDS011;3073;42.660;23.316;2023-03-03T10:10:15;18.83;;;12.70;;
6089;SDS011;3073;42.660;23.316;2023-03-03T10:12:56;24.93;;;13.80;;
6089;SDS011;3073;42.660;23.316;2023-03-03T10:15:36;24.10;;;13.47;;
6089;SDS011;3073;42.660;23.316;2023-03-03T10:18:19;24.67;;;14.70;;
6089;SDS011;3073;42.660;23.316;2023-03-03T10:20:57;19.30;;;12.97;;
6089;SDS011;3073;42.660;23.316;2023-03-03T10:23:37;19.23;;;13.10;;
6089;SDS011;3073;42.660;23.316;2023-03-03T10:26:20;20.00;;;13.30;;
6089;SDS011;3073;42.660;23.316;2023-03-03T10:29:04;20.37;;;14.50;;
6089;SDS011;3073;42.660;23.316;2023-03-03T10:31:43;19.97;;;13.70;;
6089;SDS011;3073;42.660;23.316;2023-03-03T10:34:23;23.20;;;13.57;;
6089;SDS011;3073;42.660;23.316;2023-03-03T10:37:15;20.23;;;13.37;;
6089;SDS011;3073;42.660;23.316;2023-03-03T10:40:04;21.33;;;14.80;;
6089;SDS011;3073;42.660;23.316;2023-03-03T10:42:52;24.10;;;13.47;;
6089;SDS011;3073;42.660;23.316;2023-03-03T10:45:38;21.27;;;13.90;;
6089;SDS011;3073;42.660;23.316;2023-03-03T10:48:18;20.23;;;13.00;;
6089;SDS011;3073;42.660;23.316;2023-03-03T10:50:57;22.20;;;14.47;;
6089;SDS011;3073;42.660;23.316;2023-03-03T10:53:33;20.93;;;14.67;;
6089;SDS011;3073;42.660;23.316;2023-03-03T10:56:14;23.77;;;14.90;;
6089;SDS011;3073;42.660;23.316;2023-03-03T10:58:58;19.90;;;12.97;;
6089;SDS011;3073;42.660;23.316;2023-03-03T11:01:43;21.20;;;13.17;;
6089;SDS011;3073;42.660;23.316;2023-03-03T11:04:21;27.63;;;14.00;;
6089;SDS011;3073;42.660;23.316;2023-03-03T11:07:03;21.30;;;14.70;;
6089;SDS011;3073;42.660;23.316;2023-03-03T11:09:40;27.10;;;16.00;;
6089;SDS011;3073;42.660;23.316;2023-03-03T11:12:22;24.80;;;15.97;;
6089;SDS011;3073;42.660;23.316;2023-03-03T11:14:56;25.13;;;15.67;;
6089;SDS011;3073;42.660;23.316;2023-03-03T11:17:48;23.13;;;14.67;;
6089;SDS011;3073;42.660;23.316;2023-03-03T11:20:30;23.87;;;15.03;;
6089;SDS011;3073;42.660;23.316;2023-03-03T11:23:06;23.20;;;14.07;;
6089;SDS011;3073;42.660;23.316;2023-03-03T11:25:45;26.90;;;18.17;;
6089;SDS011;3073;42.660;23.316;2023-03-03T11:28:31;30.63;;;17.20;;
6089;SDS011;3073;42.660;23.316;2023-03-03T11:31:13;26.63;;;17.77;;
6089;SDS011;3073;42.660;23.316;2023-03-03T11:33:48;25.60;;;16.60;;
6089;SDS011;3073;42.660;23.316;2023-03-03T11:36:25;26.50;;;18.37;;
6089;SDS011;3073;42.660;23.316;2023-03-03T11:38:56;26.93;;;18.70;;
6089;SDS011;3073;42.660;23.316;2023-03-03T11:41:31;28.97;;;17.70;;
6089;SDS011;3073;42.660;23.316;2023-03-03T11:44:09;27.87;;;18.33;;
6089;SDS011;3073;42.660;23.316;2023-03-03T11:46:45;31.30;;;19.60;;
6089;SDS011;3073;42.660;23.316;2023-03-03T11:49:19;30.90;;;20.50;;
6089;SDS011;3073;42.660;23.316;2023-03-03T11:51:53;36.33;;;23.60;;
6089;SDS011;3073;42.660;23.316;2023-03-03T11:54:29;34.03;;;23.70;;
6089;SDS011;3073;42.660;23.316;2023-03-03T11:57:09;34.00;;;22.07;;
6089;SDS011;3073;42.660;23.316;2023-03-03T12:00:04;36.07;;;22.80;;
6089;SDS011;3073;42.660;23.316;2023-03-03T12:02:50;37.30;;;23.83;;
6089;SDS011;3073;42.660;23.316;2023-03-03T12:05:40;45.40;;;28.73;;
6089;SDS011;3073;42.660;23.316;2023-03-03T12:08:17;45.00;;;27.73;;
6089;SDS011;3073;42.660;23.316;2023-03-03T12:10:55;45.23;;;27.50;;
6089;SDS011;3073;42.660;23.316;2023-03-03T12:13:27;41.73;;;27.80;;
6089;SDS011;3073;42.660;23.316;2023-03-03T12:16:03;42.70;;;26.83;;
6089;SDS011;3073;42.660;23.316;2023-03-03T12:18:41;37.40;;;24.90;;
6089;SDS011;3073;42.660;23.316;2023-03-03T12:21:33;39.17;;;24.77;;
6089;SDS011;3073;42.660;23.316;2023-03-03T12:24:20;38.10;;;25.70;;
6089;SDS011;3073;42.660;23.316;2023-03-03T12:26:57;40.90;;;25.90;;
6089;SDS011;3073;42.660;23.316;2023-03-03T12:29:35;31.47;;;21.90;;
6089;SDS011;3073;42.660;23.316;2023-03-03T12:32:14;38.50;;;23.50;;
6089;SDS011;3073;42.660;23.316;2023-03-03T12:34:49;34.87;;;23.47;;
6089;SDS011;3073;42.660;23.316;2023-03-03T12:37:23;35.27;;;22.47;;
6089;SDS011;3073;42.660;23.316;2023-03-03T12:40:04;36.60;;;23.20;;
6089;SDS011;3073;42.660;23.316;2023-03-03T12:42:37;34.97;;;22.97;;
6089;SDS011;3073;42.660;23.316;2023-03-03T12:45:20;33.97;;;20.40;;
6089;SDS011;3073;42.660;23.316;2023-03-03T12:47:59;33.30;;;22.33;;
6089;SDS011;3073;42.660;23.316;2023-03-03T12:50:34;30.63;;;20.90;;
6089;SDS011;3073;42.660;23.316;2023-03-03T12:53:31;34.70;;;21.80;;
6089;SDS011;3073;42.660;23.316;2023-03-03T12:56:20;35.67;;;21.30;;
6089;SDS011;3073;42.660;23.316;2023-03-03T12:58:57;32.77;;;20.20;;
6089;SDS011;3073;42.660;23.316;2023-03-03T13:01:34;33.07;;;20.57;;
6089;SDS011;3073;42.660;23.316;2023-03-03T13:04:13;29.73;;;19.40;;
6089;SDS011;3073;42.660;23.316;2023-03-03T13:06:55;26.60;;;18.13;;
6089;SDS011;3073;42.660;23.316;2023-03-03T13:09:31;27.23;;;17.77;;
6089;SDS011;3073;42.660;23.316;2023-03-03T13:12:17;26.83;;;19.17;;
6089;SDS011;3073;42.660;23.316;2023-03-03T13:15:00;25.10;;;18.37;;
6089;SDS011;3073;42.660;23.316;2023-03-03T13:17:34;22.70;;;15.40;;
6089;SDS011;3073;42.660;23.316;2023-03-03T13:20:11;19.60;;;13.60;;
6089;SDS011;3073;42.660;23.316;2023-03-03T13:22:49;20.53;;;12.70;;
6089;SDS011;3073;42.660;23.316;2023-03-03T13:28:18;17.90;;;13.50;;
6089;SDS011;3073;42.660;23.316;2023-03-03T13:30:52;17.90;;;13.40;;
6089;SDS011;3073;42.660;23.316;2023-03-03T13:33:25;19.53;;;14.23;;
6089;SDS011;3073;42.660;23.316;2023-03-03T13:35:55;19.40;;;14.23;;
6089;SDS011;3073;42.660;23.316;2023-03-03T13:38:25;13.30;;;11.50;;
6089;SDS011;3073;42.660;23.316;2023-03-03T13:41:01;14.23;;;10.70;;
6089;SDS011;3073;42.660;23.316;2023-03-03T13:43:42;18.50;;;11.07;;
6089;SDS011;3073;42.660;23.316;2023-03-03T13:46:15;14.97;;;10.77;;
6089;SDS011;3073;42.660;23.316;2023-03-03T13:52:01;15.33;;;10.73;;
6089;SDS011;3073;42.660;23.316;2023-03-03T13:54:41;15.17;;;10.83;;
6089;SDS011;3073;42.660;23.316;2023-03-03T13:57:32;13.73;;;10.73;;
6089;SDS011;3073;42.660;23.316;2023-03-03T14:00:12;16.00;;;12.40;;
6089;SDS011;3073;42.660;23.316;2023-03-03T14:02:50;20.80;;;13.33;;
6089;SDS011;3073;42.660;23.316;2023-03-03T14:05:28;19.53;;;12.97;;
6089;SDS011;3073;42.660;23.316;2023-03-03T14:08:06;18.17;;;12.50;;
6089;SDS011;3073;42.660;23.316;2023-03-03T14:10:46;16.17;;;12.30;;
6089;SDS011;3073;42.660;23.316;2023-03-03T14:13:22;16.07;;;11.87;;
6089;SDS011;3073;42.660;23.316;2023-03-03T14:15:56;15.70;;;12.43;;
6089;SDS011;3073;42.660;23.316;2023-03-03T14:18:30;15.63;;;12.00;;
6089;SDS011;3073;42.660;23.316;2023-03-03T14:21:02;17.90;;;13.30;;
6089;SDS011;3073;42.660;23.316;2023-03-03T14:23:41;18.87;;;12.63;;
6089;SDS011;3073;42.660;23.316;2023-03-03T14:26:24;16.23;;;12.07;;
6089;SDS011;3073;42.660;23.316;2023-03-03T14:29:02;15.70;;;12.33;;
6089;SDS011;3073;42.660;23.316;2023-03-03T14:31:40;16.37;;;12.27;;
6089;SDS011;3073;42.660;23.316;2023-03-03T14:34:13;16.23;;;12.60;;
6089;SDS011;3073;42.660;23.316;2023-03-03T14:36:56;18.43;;;11.10;;
6089;SDS011;3073;42.660;23.316;2023-03-03T14:39:29;20.00;;;11.90;;
6089;SDS011;3073;42.660;23.316;2023-03-03T14:41:59;17.80;;;11.60;;
6089;SDS011;3073;42.660;23.316;2023-03-03T14:44:34;16.90;;;12.03;;
6089;SDS011;3073;42.660;23.316;2023-03-03T14:47:04;14.23;;;10.13;;
6089;SDS011;3073;42.660;23.316;2023-03-03T14:49:44;15.03;;;11.00;;
6089;SDS011;3073;42.660;23.316;2023-03-03T14:52:18;12.80;;;10.70;;
6089;SDS011;3073;42.660;23.316;2023-03-03T14:54:50;16.97;;;11.50;;
6089;SDS011;3073;42.660;23.316;2023-03-03T14:57:19;12.97;;;10.30;;
6089;SDS011;3073;42.660;23.316;2023-03-03T14:59:58;12.80;;;9.77;;
6089;SDS011;3073;42.660;23.316;2023-03-03T15:02:32;12.40;;;9.63;;
6089;SDS011;3073;42.660;23.316;2023-03-03T15:05:12;13.23;;;10.20;;
6089;SDS011;3073;42.660;23.316;2023-03-03T15:07:50;12.20;;;9.50;;
6089;SDS011;3073;42.660;23.316;2023-03-03T15:10:28;10.00;;;8.87;;
6089;SDS011;3073;42.660;23.316;2023-03-03T15:12:57;9.83;;;8.50;;
6089;SDS011;3073;42.660;23.316;2023-03-03T15:15:36;12.07;;;8.57;;
6089;SDS011;3073;42.660;23.316;2023-03-03T15:18:15;14.33;;;9.97;;
6089;SDS011;3073;42.660;23.316;2023-03-03T15:20:42;13.90;;;10.47;;
6089;SDS011;3073;42.660;23.316;2023-03-03T15:26:38;16.00;;;9.87;;
6089;SDS011;3073;42.660;23.316;2023-03-03T15:29:13;12.77;;;10.50;;
6089;SDS011;3073;42.660;23.316;2023-03-03T15:31:52;14.93;;;12.60;;